Time;durP1;ratioP1;P1;durP2;ratioP2;P2;SDS_P1;SDS_P2;PMS_P1;PMS_P2;Temp;Humidity;BMP_temperature;BMP_pressure;BME280_temperature;BME280_humidity;BME280_pressure;Samples;Min_cycle;Max_cycle;Signal;HPM_P1;HPM_P2
2023/06/07 00:01:08;;;;;;;19.77;5.30;;;10.30;99.90;;;;;;5097797;28;20055;-75
2023/06/07 00:03:36;;;;;;;17.80;6.45;;;10.20;99.90;;;;;;5097225;28;20039;-73
2023/06/07 00:06:01;;;;;;;18.95;5.68;;;10.20;99.90;;;;;;5098099;28;20050;-73
2023/06/07 00:08:28;;;;;;;18.05;5.47;;;10.20;99.90;;;;;;5115819;28;20101;-73
2023/06/07 00:10:55;;;;;;;18.30;6.63;;;10.20;99.90;;;;;;5098202;28;20050;-74
2023/06/07 00:13:21;;;;;;;20.05;6.18;;;10.20;99.90;;;;;;5097758;28;20109;-75
2023/06/07 00:15:46;;;;;;;19.20;5.88;;;10.10;99.90;;;;;;5115915;28;20040;-75
2023/06/07 00:18:12;;;;;;;20.52;6.10;;;10.10;99.90;;;;;;5097920;28;20043;-74
2023/06/07 00:20:38;;;;;;;16.67;5.50;;;10.10;99.90;;;;;;5116335;28;20077;-74
2023/06/07 00:23:05;;;;;;;19.15;5.10;;;10.10;99.90;;;;;;5098199;28;20051;-74
2023/06/07 00:25:30;;;;;;;13.63;6.00;;;10.10;99.90;;;;;;5081601;28;20062;-74
2023/06/07 00:27:56;;;;;;;17.70;5.90;;;10.10;99.90;;;;;;5116516;28;20052;-73
2023/06/07 00:30:22;;;;;;;16.77;7.10;;;10.00;99.90;;;;;;5098132;28;20575;-74
2023/06/07 00:32:48;;;;;;;16.40;6.30;;;10.00;99.90;;;;;;5115934;28;20047;-73
2023/06/07 00:35:14;;;;;;;15.82;6.00;;;10.00;99.90;;;;;;5115321;28;20055;-74
2023/06/07 00:37:41;;;;;;;21.52;7.40;;;9.90;99.90;;;;;;5098094;28;20457;-74
2023/06/07 00:40:07;;;;;;;15.77;5.70;;;9.90;99.90;;;;;;5097923;28;20138;-73
2023/06/07 00:42:33;;;;;;;18.43;6.30;;;9.90;99.90;;;;;;5116104;28;20051;-74
2023/06/07 00:44:59;;;;;;;17.27;6.63;;;9.80;99.90;;;;;;5115963;28;20079;-74
2023/06/07 00:47:26;;;;;;;20.83;6.75;;;9.80;99.90;;;;;;5115763;28;20044;-74
2023/06/07 00:49:53;;;;;;;19.67;7.03;;;9.70;99.90;;;;;;5098293;28;20051;-73
2023/06/07 00:52:20;;;;;;;18.40;6.60;;;9.70;99.90;;;;;;5081242;28;20062;-75
2023/06/07 00:54:46;;;;;;;;;;;9.70;99.90;;;;;;5098343;28;20124;-74
2023/06/07 00:57:13;;;;;;;19.43;7.53;;;9.60;99.90;;;;;;5114914;28;19920;-74
2023/06/07 00:59:39;;;;;;;21.48;6.70;;;9.60;99.90;;;;;;5114945;28;20035;-74
2023/06/07 01:02:05;;;;;;;20.05;7.05;;;9.60;99.90;;;;;;5079856;28;20043;-75
2023/06/07 01:04:34;;;;;;;19.60;6.18;;;9.60;99.90;;;;;;5096924;28;20051;-75
2023/06/07 01:07:02;;;;;;;19.60;7.70;;;9.60;99.90;;;;;;5115589;28;20048;-74
2023/06/07 01:09:30;;;;;;;27.77;6.78;;;9.60;99.90;;;;;;5096517;28;20059;-72
2023/06/07 01:11:57;;;;;;;22.35;7.03;;;9.60;99.90;;;;;;5114581;28;20052;-73
2023/06/07 01:14:24;;;;;;;22.42;6.63;;;9.50;99.90;;;;;;5079521;28;20610;-74
2023/06/07 01:16:50;;;;;;;;;;;9.50;99.90;;;;;;5114853;28;20039;-74
2023/06/07 01:19:25;;;;;;;26.05;7.65;;;9.50;99.90;;;;;;5113318;28;19928;-74
2023/06/07 01:22:05;;;;;;;18.33;6.13;;;9.50;99.90;;;;;;5097192;28;20047;-74
2023/06/07 01:24:31;;;;;;;20.33;6.13;;;9.40;99.90;;;;;;5114749;28;20051;-73
2023/06/07 01:26:59;;;;;;;23.33;6.60;;;9.40;99.90;;;;;;5096993;28;20130;-73
2023/06/07 01:29:30;;;;;;;16.08;6.25;;;9.40;99.90;;;;;;5096286;28;20056;-74
2023/06/07 01:31:58;;;;;;;18.92;6.10;;;9.40;99.90;;;;;;5097104;28;20401;-73
2023/06/07 01:34:25;;;;;;;18.58;6.30;;;9.40;99.90;;;;;;5096013;28;20040;-73
2023/06/07 01:36:53;;;;;;;;;;;9.40;99.90;;;;;;5114141;28;20122;-73
2023/06/07 01:39:20;;;;;;;23.35;6.63;;;9.40;99.90;;;;;;5113045;28;20246;-72
2023/06/07 01:41:47;;;;;;;19.75;7.10;;;9.40;99.90;;;;;;5095620;28;20409;-73
2023/06/07 01:44:14;;;;;;;26.58;7.05;;;9.40;99.90;;;;;;5096747;28;20066;-74
2023/06/07 01:46:44;;;;;;;19.53;6.87;;;9.30;99.90;;;;;;5113802;28;20040;-74
2023/06/07 01:49:09;;;;;;;20.45;6.15;;;9.30;99.90;;;;;;5114213;28;20047;-74
2023/06/07 01:51:35;;;;;;;21.42;6.75;;;9.30;99.90;;;;;;5079416;28;20044;-74
2023/06/07 01:54:03;;;;;;;19.35;6.13;;;9.30;99.90;;;;;;5095967;28;20089;-74
2023/06/07 01:56:55;;;;;;;17.92;5.90;;;9.30;99.90;;;;;;5114249;28;20036;-72
2023/06/07 01:59:59;;;;;;;16.02;5.97;;;9.30;99.90;;;;;;5098484;28;20464;-74
2023/06/07 02:02:24;;;;;;;17.10;6.15;;;9.30;99.90;;;;;;5116068;28;20047;-74
2023/06/07 02:04:56;;;;;;;26.63;7.78;;;9.30;99.90;;;;;;5115292;28;20112;-73
2023/06/07 02:07:27;;;;;;;20.08;6.68;;;9.30;99.90;;;;;;5081248;28;20075;-73
2023/06/07 02:09:53;;;;;;;20.50;7.18;;;9.30;99.90;;;;;;5097325;28;20056;-73
2023/06/07 02:12:20;;;;;;;15.25;5.50;;;9.30;99.90;;;;;;5117658;28;20044;-72
2023/06/07 02:14:52;;;;;;;20.92;6.35;;;9.30;99.90;;;;;;5083727;28;20047;-74
2023/06/07 02:17:19;;;;;;;19.80;6.38;;;9.30;99.90;;;;;;5101198;28;20044;-74
2023/06/07 02:19:45;;;;;;;;;;;9.30;99.90;;;;;;5119081;28;20048;-73
2023/06/07 02:22:14;;;;;;;23.47;6.70;;;9.30;99.90;;;;;;5118529;28;19920;-75
2023/06/07 02:24:41;;;;;;;26.88;7.22;;;9.30;99.90;;;;;;5100675;28;20051;-73
2023/06/07 02:27:08;;;;;;;26.02;7.70;;;9.40;99.90;;;;;;5118621;28;20404;-74
2023/06/07 02:29:34;;;;;;;18.02;7.00;;;9.50;99.90;;;;;;5118783;28;20127;-73
2023/06/07 02:32:00;;;;;;;20.50;6.55;;;9.50;99.90;;;;;;5118486;28;20040;-73
2023/06/07 02:34:29;;;;;;;20.63;6.85;;;9.60;99.90;;;;;;5100174;28;20047;-75
2023/06/07 02:36:55;;;;;;;19.33;7.57;;;9.60;99.90;;;;;;5099627;28;20046;-74
2023/06/07 02:39:21;;;;;;;25.67;8.38;;;9.70;99.90;;;;;;5118718;28;20438;-74
2023/06/07 02:41:47;;;;;;;25.73;8.73;;;9.70;99.90;;;;;;5118598;28;20077;-74
2023/06/07 02:44:13;;;;;;;23.88;7.50;;;9.80;99.90;;;;;;5100229;28;20480;-73
2023/06/07 02:46:38;;;;;;;24.45;8.30;;;9.80;99.90;;;;;;5117981;28;20075;-75
2023/06/07 02:49:05;;;;;;;24.63;9.27;;;9.90;99.90;;;;;;5118165;28;20130;-75
2023/06/07 02:51:31;;;;;;;25.30;9.15;;;10.00;99.90;;;;;;5100154;28;20357;-74
2023/06/07 02:53:56;;;;;;;27.42;9.30;;;10.00;99.90;;;;;;5100589;28;20122;-73
2023/06/07 02:56:23;;;;;;;24.38;9.65;;;10.10;99.90;;;;;;5117842;28;20123;-75
2023/06/07 02:58:49;;;;;;;25.38;8.55;;;10.20;99.90;;;;;;5116944;28;20069;-73
2023/06/07 03:01:16;;;;;;;21.55;9.27;;;10.20;99.90;;;;;;5081625;28;20047;-74
2023/06/07 03:03:42;;;;;;;;;;;10.30;99.90;;;;;;5117168;28;20052;-74
2023/06/07 03:06:09;;;;;;;26.60;10.13;;;10.40;99.90;;;;;;5116391;28;20002;-74
2023/06/07 03:08:35;;;;;;;27.90;9.70;;;10.40;99.90;;;;;;5116610;28;20132;-74
2023/06/07 03:11:01;;;;;;;22.88;9.65;;;10.40;99.90;;;;;;5116886;28;20036;-74
2023/06/07 03:13:27;;;;;;;23.05;9.23;;;10.50;99.90;;;;;;5115845;28;20467;-72
2023/06/07 03:15:53;;;;;;;29.13;9.25;;;10.50;99.90;;;;;;5098057;28;20405;-73
2023/06/07 03:18:19;;;;;;;28.63;10.13;;;10.50;99.90;;;;;;5081472;28;20055;-74
2023/06/07 03:20:47;;;;;;;27.10;9.85;;;10.60;99.90;;;;;;5116698;28;20040;-72
2023/06/07 03:23:13;;;;;;;31.83;11.52;;;10.60;99.90;;;;;;5116915;28;20385;-72
2023/06/07 03:25:40;;;;;;;28.85;9.63;;;10.60;99.90;;;;;;5080785;28;20048;-73
2023/06/07 03:28:06;;;;;;;23.45;8.45;;;10.70;99.90;;;;;;5097757;28;20128;-73
2023/06/07 03:30:32;;;;;;;29.77;8.77;;;10.70;99.90;;;;;;5115954;28;20044;-73
2023/06/07 03:32:57;;;;;;;25.70;8.30;;;10.70;99.90;;;;;;5097929;28;20054;-74
2023/06/07 03:35:23;;;;;;;26.15;8.55;;;10.80;99.90;;;;;;5115827;28;20131;-73
2023/06/07 03:37:49;;;;;;;23.58;9.27;;;10.80;99.90;;;;;;5116237;28;20044;-73
2023/06/07 03:40:15;;;;;;;30.58;10.65;;;10.80;99.90;;;;;;5098095;28;20111;-74
2023/06/07 03:42:41;;;;;;;21.08;9.90;;;10.80;99.90;;;;;;5115718;28;20043;-73
2023/06/07 03:45:07;;;;;;;25.83;8.80;;;10.80;99.90;;;;;;5115567;28;20051;-73
2023/06/07 03:47:33;;;;;;;24.17;8.95;;;10.80;99.90;;;;;;5098103;28;20381;-73
2023/06/07 03:49:58;;;;;;;27.63;9.52;;;10.80;99.90;;;;;;5115487;28;20043;-73
2023/06/07 03:52:24;;;;;;;24.70;9.38;;;10.90;99.90;;;;;;5115542;28;20106;-71
2023/06/07 03:54:51;;;;;;;23.50;8.88;;;10.90;99.90;;;;;;5097256;28;20043;-72
2023/06/07 03:57:17;;;;;;;26.67;10.77;;;10.90;99.90;;;;;;5063731;28;20092;-74
2023/06/07 03:59:42;;;;;;;27.33;9.07;;;10.90;99.90;;;;;;5097086;28;20282;-73
2023/06/07 04:02:08;;;;;;;20.65;8.48;;;10.90;99.90;;;;;;5098123;28;20124;-73
2023/06/07 04:04:34;;;;;;;28.08;9.70;;;11.00;99.90;;;;;;5115280;28;20477;-73
2023/06/07 04:07:03;;;;;;;25.15;8.50;;;11.00;99.90;;;;;;5097257;28;20528;-72
2023/06/07 04:09:29;;;;;;;24.25;9.95;;;10.90;99.90;;;;;;5115473;28;20146;-74
2023/06/07 04:11:55;;;;;;;16.95;7.85;;;10.90;99.90;;;;;;5096978;28;20130;-73
2023/06/07 04:14:21;;;;;;;23.07;8.60;;;10.90;99.90;;;;;;5115112;28;20108;-73
2023/06/07 04:16:47;;;;;;;24.65;7.75;;;11.00;99.90;;;;;;5114941;28;20035;-73
2023/06/07 04:19:12;;;;;;;20.20;7.83;;;11.00;99.90;;;;;;5114692;28;20052;-72
2023/06/07 04:21:39;;;;;;;25.77;8.13;;;11.10;99.90;;;;;;5114961;28;20146;-76
2023/06/07 04:24:05;;;;;;;23.95;8.57;;;11.10;99.90;;;;;;5115168;28;20105;-72
2023/06/07 04:26:31;;;;;;;21.07;8.33;;;11.10;99.90;;;;;;5097232;28;20055;-71
2023/06/07 04:29:00;;;;;;;26.15;7.90;;;11.10;99.90;;;;;;5097077;28;20054;-72
2023/06/07 04:31:29;;;;;;;21.27;7.03;;;11.10;99.90;;;;;;5114923;28;20051;-73
2023/06/07 04:34:01;;;;;;;26.67;7.82;;;11.10;99.90;;;;;;5114438;28;20044;-75
2023/06/07 04:36:28;;;;;;;19.83;7.72;;;11.20;99.90;;;;;;5096552;28;20157;-74
2023/06/07 04:38:58;;;;;;;22.98;7.30;;;11.30;99.90;;;;;;5097011;28;20052;-71
2023/06/07 04:41:32;;;;;;;22.55;7.15;;;11.30;99.90;;;;;;5097582;28;20047;-73
2023/06/07 04:44:01;;;;;;;18.60;6.68;;;11.30;99.90;;;;;;5115296;28;20052;-74
2023/06/07 04:46:27;;;;;;;25.80;7.97;;;11.30;99.90;;;;;;5114849;28;20040;-73
2023/06/07 04:48:53;;;;;;;24.65;7.90;;;11.30;99.90;;;;;;5114752;28;20043;-72
2023/06/07 04:51:23;;;;;;;18.88;6.93;;;11.40;99.90;;;;;;5114874;28;20043;-73
2023/06/07 04:53:49;;;;;;;18.40;7.20;;;11.40;99.90;;;;;;5096629;28;20047;-73
2023/06/07 04:56:14;;;;;;;28.10;7.10;;;11.50;99.90;;;;;;5115039;28;20079;-73
2023/06/07 04:58:40;;;;;;;23.42;8.80;;;11.60;99.90;;;;;;5114920;28;20040;-74
2023/06/07 05:01:09;;;;;;;25.38;7.72;;;11.50;99.90;;;;;;5095818;28;20043;-73
2023/06/07 05:03:37;;;;;;;21.92;7.03;;;11.50;99.90;;;;;;5079861;28;20043;-73
2023/06/07 05:06:04;;;;;;;24.65;8.30;;;11.50;99.90;;;;;;5096175;28;20062;-73
2023/06/07 05:08:30;;;;;;;24.43;9.27;;;11.40;99.90;;;;;;5096105;28;20126;-74
2023/06/07 05:10:56;;;;;;;20.58;7.35;;;11.40;99.90;;;;;;5114022;28;20331;-73
2023/06/07 05:13:22;;;;;;;19.63;8.48;;;11.60;99.90;;;;;;5096416;28;20040;-73
2023/06/07 05:15:50;;;;;;;20.60;8.15;;;11.50;99.90;;;;;;5095672;28;20500;-74
2023/06/07 05:18:18;;;;;;;18.92;6.85;;;11.40;99.90;;;;;;5114029;28;20043;-73
2023/06/07 05:20:44;;;;;;;19.00;7.13;;;11.60;99.90;;;;;;5114345;28;20108;-74
2023/06/07 05:23:15;;;;;;;26.90;8.52;;;11.60;99.90;;;;;;5079313;28;20051;-73
2023/06/07 05:25:41;;;;;;;23.38;7.65;;;11.70;99.90;;;;;;5063140;28;20071;-72
2023/06/07 05:28:07;;;;;;;14.73;6.00;;;11.70;99.90;;;;;;5113721;28;20546;-71
2023/06/07 05:30:33;;;;;;;14.98;6.18;;;11.90;99.90;;;;;;5095599;28;20051;-72
2023/06/07 05:32:58;;;;;;;19.33;6.53;;;11.90;99.90;;;;;;5095539;28;20400;-72
2023/06/07 05:35:24;;;;;;;19.55;6.80;;;12.00;99.90;;;;;;5113801;28;20044;-72
2023/06/07 05:37:50;;;;;;;16.35;5.82;;;11.90;99.90;;;;;;5095804;28;20511;-71
2023/06/07 05:40:18;;;;;;;21.52;5.95;;;12.00;99.90;;;;;;5095832;28;20074;-72
2023/06/07 05:42:44;;;;;;;19.95;5.50;;;12.10;99.90;;;;;;5113717;28;20043;-73
2023/06/07 05:45:11;;;;;;;18.92;5.80;;;12.20;99.90;;;;;;5114315;28;20052;-73
2023/06/07 05:47:37;;;;;;;17.40;6.07;;;12.20;99.90;;;;;;5100039;28;20105;-72
2023/06/07 05:50:04;;;;;;;19.45;6.30;;;12.40;99.90;;;;;;5083627;28;20411;-72
2023/06/07 05:52:30;;;;;;;15.40;5.38;;;12.50;99.90;;;;;;5118313;28;20051;-72
2023/06/07 05:54:57;;;;;;;14.98;5.78;;;12.60;99.90;;;;;;5099704;28;20114;-73
2023/06/07 05:57:23;;;;;;;20.58;5.20;;;12.70;99.90;;;;;;5099695;28;20062;-74
2023/06/07 05:59:49;;;;;;;16.35;4.70;;;12.80;99.90;;;;;;5099472;28;20104;-73
2023/06/07 06:02:20;;;;;;;15.48;6.15;;;12.90;99.90;;;;;;5082920;28;20469;-73
2023/06/07 06:04:46;;;;;;;18.20;6.68;;;12.60;99.90;;;;;;5117559;28;20070;-73
2023/06/07 06:07:12;;;;;;;18.98;6.20;;;12.50;99.90;;;;;;5099285;28;20039;-74
2023/06/07 06:09:40;;;;;;;16.58;5.45;;;12.60;99.90;;;;;;5118061;28;20051;-72
2023/06/07 06:12:07;;;;;;;19.95;6.47;;;12.80;99.90;;;;;;5118081;28;20108;-73
2023/06/07 06:14:32;;;;;;;16.00;5.95;;;12.80;99.90;;;;;;5117833;28;20051;-73
2023/06/07 06:16:58;;;;;;;14.85;5.57;;;12.80;99.90;;;;;;5099197;28;20477;-75
2023/06/07 06:19:25;;;;;;;18.35;6.43;;;13.00;99.90;;;;;;5066371;28;20055;-73
2023/06/07 06:21:51;;;;;;;19.33;6.38;;;13.20;99.90;;;;;;5117320;28;20066;-72
2023/06/07 06:24:16;;;;;;;14.82;5.30;;;13.20;99.90;;;;;;5082146;28;20055;-72
2023/06/07 06:26:42;;;;;;;18.40;6.53;;;13.40;99.90;;;;;;5117542;28;20466;-72
2023/06/07 06:29:08;;;;;;;16.27;5.35;;;13.30;99.90;;;;;;5117666;28;20122;-72
2023/06/07 06:31:34;;;;;;;11.82;5.00;;;13.30;99.90;;;;;;5099070;28;20044;-72
2023/06/07 06:34:00;;;;;;;18.83;5.67;;;13.20;99.90;;;;;;5082079;28;20069;-73
2023/06/07 06:36:26;;;;;;;17.73;5.30;;;13.00;99.90;;;;;;5116858;28;20043;-73
2023/06/07 06:38:52;;;;;;;14.63;5.57;;;12.80;99.90;;;;;;5098949;28;20044;-75
2023/06/07 06:41:18;;;;;;;16.92;5.35;;;12.60;99.90;;;;;;5117458;28;20055;-72
2023/06/07 06:43:44;;;;;;;18.58;5.93;;;12.60;99.90;;;;;;5116783;28;20541;-72
2023/06/07 06:46:10;;;;;;;17.77;6.07;;;12.60;99.90;;;;;;5116607;28;20044;-74
2023/06/07 06:48:37;;;;;;;15.63;5.77;;;12.70;99.90;;;;;;5116767;28;20057;-72
2023/06/07 06:51:02;;;;;;;18.60;5.90;;;12.80;99.90;;;;;;5116624;28;20047;-72
2023/06/07 06:53:28;;;;;;;19.02;5.95;;;12.90;99.90;;;;;;5081860;28;20062;-72
2023/06/07 06:55:54;;;;;;;12.68;4.93;;;12.90;99.90;;;;;;5116512;28;20043;-74
2023/06/07 06:58:20;;;;;;;21.08;5.25;;;12.80;99.90;;;;;;5097855;28;20055;-72
2023/06/07 07:00:46;;;;;;;17.90;5.05;;;12.80;99.90;;;;;;5081581;28;20061;-73
2023/06/07 07:03:12;;;;;;;10.50;5.20;;;12.90;99.90;;;;;;5081555;28;20058;-75
2023/06/07 07:05:37;;;;;;;29.40;6.55;;;13.00;99.90;;;;;;5098092;28;20047;-75
2023/06/07 07:08:06;;;;;;;19.95;5.25;;;13.10;99.90;;;;;;5081418;28;20079;-71
2023/06/07 07:10:32;;;;;;;14.77;4.72;;;13.20;99.90;;;;;;5098148;28;20043;-73
2023/06/07 07:12:58;;;;;;;19.05;4.28;;;13.30;99.90;;;;;;5098045;28;20050;-74
2023/06/07 07:15:23;;;;;;;11.48;3.55;;;13.40;99.90;;;;;;5098403;28;20055;-73
2023/06/07 07:17:50;;;;;;;12.52;3.63;;;13.50;99.90;;;;;;5081824;28;20101;-73
2023/06/07 07:20:17;;;;;;;12.82;3.80;;;13.60;99.90;;;;;;5097872;28;20059;-71
2023/06/07 07:22:44;;;;;;;13.95;3.83;;;13.80;99.90;;;;;;5097844;28;20067;-74
2023/06/07 07:25:10;;;;;;;15.52;4.03;;;13.70;99.90;;;;;;5097773;28;20055;-72
2023/06/07 07:27:37;;;;;;;17.67;4.18;;;14.00;99.90;;;;;;5115961;28;20044;-73
2023/06/07 07:30:04;;;;;;;18.30;4.33;;;14.10;99.90;;;;;;5098023;28;20048;-76
2023/06/07 07:32:30;;;;;;;14.95;4.13;;;14.00;99.90;;;;;;5097700;28;20047;-74
2023/06/07 07:34:56;;;;;;;15.85;4.25;;;14.10;99.90;;;;;;5097806;28;20075;-74
2023/06/07 07:37:22;;;;;;;13.43;3.75;;;14.10;99.90;;;;;;5098342;28;20139;-74
2023/06/07 07:39:48;;;;;;;14.63;4.07;;;14.20;99.90;;;;;;5115895;28;20038;-73
2023/06/07 07:42:14;;;;;;;15.60;3.55;;;14.40;99.90;;;;;;5097585;28;20050;-72
2023/06/07 07:44:39;;;;;;;20.13;4.78;;;14.50;99.90;;;;;;5115639;28;20097;-74
2023/06/07 07:47:07;;;;;;;16.63;3.93;;;14.50;99.90;;;;;;5116462;28;20122;-74
2023/06/07 07:49:32;;;;;;;14.48;3.50;;;14.70;99.90;;;;;;5097819;28;20393;-74
2023/06/07 07:51:58;;;;;;;13.90;3.80;;;15.00;99.90;;;;;;5097679;28;20043;-73
2023/06/07 07:54:25;;;;;;;15.63;3.63;;;14.90;99.90;;;;;;5097798;28;20104;-72
2023/06/07 07:56:51;;;;;;;11.10;3.40;;;15.00;99.90;;;;;;5097343;28;20158;-72
2023/06/07 07:59:17;;;;;;;10.82;2.63;;;14.90;99.90;;;;;;5080314;28;20079;-73
2023/06/07 08:01:42;;;;;;;13.45;3.50;;;14.90;99.90;;;;;;5097412;28;20036;-73
2023/06/07 08:04:08;;;;;;;13.23;2.97;;;15.00;99.90;;;;;;5096943;28;20373;-73
2023/06/07 08:06:34;;;;;;;12.50;3.13;;;15.20;99.90;;;;;;5080007;28;20043;-72
2023/06/07 08:09:02;;;;;;;12.13;3.20;;;15.30;99.90;;;;;;5079808;28;20056;-72
2023/06/07 08:11:28;;;;;;;14.70;3.67;;;15.40;99.90;;;;;;5097110;28;20051;-73
2023/06/07 08:13:54;;;;;;;12.02;2.83;;;15.50;99.90;;;;;;5115127;28;20050;-73
2023/06/07 08:16:19;;;;;;;13.55;3.13;;;15.50;99.90;;;;;;5080171;28;20039;-73
2023/06/07 08:18:49;;;;;;;12.57;2.90;;;15.60;99.90;;;;;;5096701;28;20433;-74
2023/06/07 08:21:15;;;;;;;9.18;2.97;;;15.60;99.90;;;;;;5080114;28;20060;-71
2023/06/07 08:23:43;;;;;;;13.02;3.53;;;15.90;99.90;;;;;;5096875;28;20062;-73
2023/06/07 08:26:09;;;;;;;16.92;3.47;;;15.80;99.90;;;;;;5080998;28;20051;-74
2023/06/07 08:28:35;;;;;;;15.20;3.47;;;15.70;99.90;;;;;;5115135;28;20054;-74
2023/06/07 08:31:03;;;;;;;12.18;2.75;;;15.80;99.90;;;;;;5114768;28;20047;-74
2023/06/07 08:33:29;;;;;;;14.55;3.28;;;15.90;99.90;;;;;;5096979;28;20164;-73
2023/06/07 08:35:55;;;;;;;11.82;3.05;;;16.00;99.90;;;;;;5096499;28;20067;-73
2023/06/07 08:38:21;;;;;;;15.18;3.38;;;16.10;99.90;;;;;;5096511;28;20457;-73
2023/06/07 08:40:47;;;;;;;14.65;3.95;;;16.00;99.90;;;;;;5114751;28;20035;-73
2023/06/07 08:43:12;;;;;;;13.85;3.47;;;16.10;99.90;;;;;;5114767;28;20061;-73
2023/06/07 08:45:39;;;;;;;12.55;3.42;;;16.20;99.90;;;;;;5079298;28;20105;-71
2023/06/07 08:48:12;;;;;;;12.95;3.25;;;16.40;99.90;;;;;;5080445;28;20406;-73
2023/06/07 08:50:39;;;;;;;9.73;3.20;;;16.50;99.90;;;;;;5096289;28;20097;-73
2023/06/07 08:53:10;;;;;;;10.25;3.58;;;16.30;99.90;;;;;;5063567;28;20043;-72
2023/06/07 08:55:37;;;;;;;11.70;2.90;;;16.50;99.90;;;;;;5096418;28;20055;-72
2023/06/07 08:58:03;;;;;;;14.43;3.50;;;16.50;99.90;;;;;;5114887;28;20040;-72
2023/06/07 09:00:29;;;;;;;14.10;3.60;;;16.70;99.90;;;;;;5079292;28;20047;-73
2023/06/07 09:02:55;;;;;;;14.75;3.40;;;16.70;99.90;;;;;;5114250;28;20281;-74
2023/06/07 09:05:21;;;;;;;11.97;3.70;;;16.70;99.90;;;;;;5114108;28;20043;-72
2023/06/07 09:07:52;;;;;;;8.05;2.90;;;16.60;99.90;;;;;;5078932;28;20104;-72
2023/06/07 09:10:18;;;;;;;12.90;3.20;;;16.70;99.90;;;;;;5096927;28;20051;-74
2023/06/07 09:12:47;;;;;;;11.30;3.50;;;17.00;99.90;;;;;;5096377;28;20056;-69
2023/06/07 09:15:18;;;;;;;10.55;3.33;;;17.00;99.90;;;;;;5095969;28;20036;-70
2023/06/07 09:17:54;;;;;;;11.73;3.10;;;16.80;99.90;;;;;;5095983;28;20116;-74
2023/06/07 09:20:24;;;;;;;10.00;2.67;;;16.80;99.90;;;;;;5079048;28;20196;-74
2023/06/07 09:23:04;;;;;;;11.10;3.70;;;17.00;99.90;;;;;;5115102;28;20070;-73
2023/06/07 09:25:30;;;;;;;11.73;3.80;;;17.10;99.90;;;;;;5095914;28;20063;-75
2023/06/07 09:27:56;;;;;;;12.23;3.70;;;17.00;99.90;;;;;;5095866;28;20047;-74
2023/06/07 09:30:23;;;;;;;14.77;3.60;;;17.20;99.90;;;;;;5095782;28;20285;-73
2023/06/07 09:32:49;;;;;;;11.68;3.55;;;17.40;99.90;;;;;;5096093;28;20770;-75
2023/06/07 09:35:17;;;;;;;15.23;3.63;;;17.60;99.90;;;;;;5113481;28;20502;-75
2023/06/07 09:37:48;;;;;;;12.32;3.53;;;17.70;99.90;;;;;;5114549;28;20337;-74
2023/06/07 09:40:15;;;;;;;13.93;3.53;;;17.90;99.90;;;;;;5096383;28;20059;-73
2023/06/07 09:42:42;;;;;;;13.18;3.28;;;18.00;99.90;;;;;;5114541;28;20126;-72
2023/06/07 09:45:15;;;;;;;10.82;3.10;;;18.10;99.90;;;;;;5095277;28;20404;-72
2023/06/07 09:47:42;;;;;;;11.48;3.55;;;18.20;99.90;;;;;;5113679;28;20062;-75
2023/06/07 09:50:12;;;;;;;;;;;18.20;99.90;;;;;;5079696;28;20473;-74
2023/06/07 09:52:38;;;;;;;8.90;3.30;;;18.20;99.90;;;;;;5113596;28;19920;-74
2023/06/07 09:55:06;;;;;;;11.52;3.30;;;18.40;99.90;;;;;;5095559;28;20108;-72
2023/06/07 09:57:34;;;;;;;9.30;3.15;;;18.40;99.90;;;;;;5078311;28;20046;-75
2023/06/07 10:00:16;;;;;;;10.93;2.97;;;18.40;99.90;;;;;;5113855;28;20047;-74
2023/06/07 10:02:43;;;;;;;14.82;3.58;;;18.60;99.90;;;;;;5096359;28;20048;-73
2023/06/07 10:05:13;;;;;;;9.65;2.88;;;18.60;99.90;;;;;;5078746;28;20160;-75
2023/06/07 10:07:44;;;;;;;11.05;3.40;;;18.60;99.90;;;;;;5095723;28;20058;-75
2023/06/07 10:10:11;;;;;;;13.50;3.83;;;18.60;99.90;;;;;;5095036;28;20044;-73
2023/06/07 10:12:40;;;;;;;;;;;18.60;99.90;;;;;;5080033;28;20044;-74
2023/06/07 10:15:09;;;;;;;11.98;3.45;;;18.50;99.90;;;;;;5113481;28;19923;-74
2023/06/07 10:18:14;;;;;;;8.95;3.30;;;18.70;99.90;;;;;;5113393;28;20333;-72
2023/06/07 10:20:51;;;;;;;11.57;3.22;;;18.80;99.90;;;;;;5113180;28;20090;-73
2023/06/07 10:23:28;;;;;;;11.32;3.53;;;18.90;99.90;;;;;;5113204;28;20580;-72
2023/06/07 10:26:03;;;;;;;13.82;4.05;;;19.00;99.90;;;;;;5096198;28;20437;-73
2023/06/07 10:28:38;;;;;;;10.57;3.67;;;18.90;99.90;;;;;;5096323;28;20381;-73
2023/06/07 10:31:08;;;;;;;12.27;3.63;;;19.20;99.90;;;;;;5095155;28;20047;-75
2023/06/07 10:33:35;;;;;;;9.40;3.22;;;19.40;99.90;;;;;;5116374;28;20044;-74
2023/06/07 10:36:01;;;;;;;;;;;19.40;99.90;;;;;;5118244;28;20043;-74
2023/06/07 10:38:30;;;;;;;10.90;3.83;;;;;;;;;;5116288;28;20421;-74
2023/06/07 10:40:58;;;;;;;13.65;3.72;;;;;;;;;;5116967;28;20051;-73
2023/06/07 10:43:26;;;;;;;11.10;4.25;;;;;;;;;;5116686;28;20047;-74
2023/06/07 10:46:12;;;;;;;13.15;4.13;;;;;;;;;;5099111;28;20086;-75
2023/06/07 10:48:40;;;;;;;10.65;3.97;;;;;;;;;;5117199;28;20093;-72
2023/06/07 10:51:06;;;;;;;10.43;4.10;;;;;;;;;;5099036;28;20052;-75
2023/06/07 10:53:48;;;;;;;13.70;3.93;;;;;;;;;;5098314;28;20048;-73
2023/06/07 10:56:26;;;;;;;9.13;4.00;;;;;;;;;;5116834;28;20627;-74
2023/06/07 10:58:53;;;;;;;12.75;4.07;;;;;;;;;;5117330;28;20374;-75
2023/06/07 11:01:25;;;;;;;12.43;3.85;;;;;;;;;;5116624;28;20126;-73
2023/06/07 11:03:53;;;;;;;9.93;4.07;;;;;;;;;;5081504;28;20070;-74
2023/06/07 11:06:19;;;;;;;12.45;3.80;;;;;;;;;;5116422;28;20093;-74
2023/06/07 11:08:45;;;;;;;17.33;3.67;;;;;;;;;;5098089;28;20047;-73
2023/06/07 11:11:30;;;;;;;10.10;3.45;;;;;;;;;;5116415;28;20047;-72
2023/06/07 11:13:57;;;;;;;10.73;3.60;;;;;;;;;;5081349;28;20062;-74
2023/06/07 11:16:23;;;;;;;8.05;3.65;;;;;;;;;;5081669;28;20140;-73
2023/06/07 11:18:53;;;;;;;11.25;3.83;;;;;;;;;;5097544;28;20523;-72
2023/06/07 11:21:19;;;;;;;11.40;3.38;;;;;;;;;;5097962;28;20071;-74
2023/06/07 11:23:45;;;;;;;9.82;3.90;;;;;;;;;;5097742;28;20050;-74
2023/06/07 11:26:13;;;;;;;13.80;3.60;;;;;;;;;;5097959;28;20449;-75
2023/06/07 11:28:40;;;;;;;11.73;3.55;;;;;;;;;;5116238;28;20054;-72
2023/06/07 11:31:10;;;;;;;11.57;4.47;;;;;;;;;;5098191;28;20104;-73
2023/06/07 11:33:36;;;;;;;13.30;3.80;;;;;;;;;;5115437;28;20087;-70
2023/06/07 11:36:06;;;;;;;9.25;3.80;;;;;;;;;;5115461;28;20366;-74
2023/06/07 11:38:32;;;;;;;10.90;3.88;;;;;;;;;;5115453;28;20463;-73
2023/06/07 11:40:58;;;;;;;7.82;3.70;;;;;;;;;;5097176;28;20080;-77
2023/06/07 11:43:25;;;;;;;12.68;3.97;;;;;;;;;;5114270;28;20489;-74
2023/06/07 11:45:54;;;;;;;9.35;3.45;;;;;;;;;;5116091;28;20381;-74
2023/06/07 11:48:21;;;;;;;9.18;3.15;;;;;;;;;;5115508;28;20043;-74
2023/06/07 11:50:47;;;;;;;12.20;3.20;;;;;;;;;;5115292;28;20078;-72
2023/06/07 11:53:15;;;;;;;;;;;;;;;;;;5116342;28;20048;-74
2023/06/07 11:55:42;;;;;;;11.20;3.40;;;;;;;;;;5115228;28;19927;-74
2023/06/07 11:58:08;;;;;;;9.88;3.40;;;;;;;;;;5115355;28;20415;-72
2023/06/07 12:00:35;;;;;;;8.75;3.50;;;;;;;;;;5115246;28;20077;-74
2023/06/07 12:03:04;;;;;;;8.98;3.28;;;;;;;;;;5115319;28;20408;-73
2023/06/07 12:05:30;;;;;;;11.05;3.40;;;;;;;;;;5096691;28;20497;-74
2023/06/07 12:08:04;;;;;;;11.05;3.58;;;;;;;;;;5115104;28;20083;-73
2023/06/07 12:10:31;;;;;;;8.70;3.25;;;;;;;;;;5115151;28;20055;-78
2023/06/07 12:13:13;;;;;;;8.15;2.90;;;;;;;;;;5114959;28;20439;-74
2023/06/07 12:15:48;;;;;;;11.23;3.05;;;;;;;;;;5096512;28;20109;-73
2023/06/07 12:18:19;;;;;;;9.00;3.28;;;;;;;;;;5114874;28;20485;-74
2023/06/07 12:20:46;;;;;;;9.32;3.70;;;;;;;;;;5115047;28;20044;-74
2023/06/07 12:23:12;;;;;;;13.27;4.00;;;;;;;;;;5097534;28;20389;-73
2023/06/07 12:25:38;;;;;;;;;;;;;;;;;;5097134;28;20052;-75
2023/06/07 12:28:06;;;;;;;11.10;3.15;;;;;;;;;;5114736;28;19984;-75
2023/06/07 12:30:40;;;;;;;12.07;3.00;;;;;;;;;;5114621;28;20100;-73
2023/06/07 12:33:12;;;;;;;9.90;3.28;;;;;;;;;;5114919;28;20069;-72
2023/06/07 12:35:39;;;;;;;14.32;4.40;;;;;;;;;;5114979;28;20039;-73
2023/06/07 12:38:06;;;;;;;11.60;3.60;;;;;;;;;;5079664;28;20474;-74
2023/06/07 12:40:32;;;;;;;14.30;3.60;;;;;;;;;;5114481;28;20096;-74
2023/06/07 12:42:58;;;;;;;9.52;3.55;;;;;;;;;;5114298;28;20048;-73
2023/06/07 12:45:25;;;;;;;9.52;3.00;;;;;;;;;;5096057;28;20056;-73
2023/06/07 12:47:51;;;;;;;8.50;3.35;;;;;;;;;;5114698;28;20051;-73
2023/06/07 12:50:17;;;;;;;10.95;3.03;;;;;;;;;;5114017;28;20508;-73
2023/06/07 12:52:43;;;;;;;11.52;3.22;;;;;;;;;;5114123;28;20043;-74
2023/06/07 12:55:09;;;;;;;;;;;;;;;;;;5114494;28;20389;-72
2023/06/07 12:57:35;;;;;;;11.35;3.38;;;;;;;;;;5114149;28;19920;-74
2023/06/07 13:00:02;;;;;;;8.85;3.35;;;;;;;;;;5114063;28;20505;-75
2023/06/07 13:02:28;;;;;;;9.50;3.25;;;;;;;;;;5113971;28;20400;-74
2023/06/07 13:04:55;;;;;;;9.40;3.30;;;;;;;;;;5095681;28;20509;-73